Data for 06/24/2015

Time Sea-Level Adjusted Pressure Absolute Pressure Temperature Relative Humidity Dew Point   
(mb) (inHg) (mb) (inHg) (C) (F) (%) (C) (F)
00:05 1020 30.12 849 25.07 17.7 63.9 45 5.7 42.3
00:10 1020 30.12 849 25.07 17.6 63.6 45 5.6 42.1
00:15 1019 30.09 849 25.07 17.7 63.8 46 6 42.8
00:20 1019 30.09 849 25.07 18.1 64.7 38 3.6 38.4
00:25 1019 30.09 849 25.07 19.3 66.7 37 4.4 39.9
00:30 1019 30.09 849 25.07 19.7 67.4 36 4.4 39.9
00:35 1020 30.12 849 25.07 19.6 67.3 39 5.3 41.6
00:40 1020 30.12 849 25.07 18.9 65.9 40 5.1 41.2
00:45 1020 30.12 849 25.07 18.5 65.2 42 5.4 41.7
00:50 1020 30.12 849 25.07 17.9 64.3 45 5.9 42.7
00:55 1020 30.12 849 25.07 17.3 63.1 44 5.1 41.1
01:00 1020 30.12 849 25.07 17.3 63.1 45 5.4 41.7
01:05 1020 30.12 849 25.07 16.8 62.3 50 6.4 43.4
01:10 1020 30.12 849 25.07 16.2 61.1 51 6.2 43.2
01:15 1020 30.12 849 25.07 15.9 60.6 52 6 42.9
01:20 1020 30.12 849 25.07 15.9 60.7 45 4.2 39.6
01:25 1020 30.12 849 25.07 16.9 62.4 41 3.7 38.6
01:30 1020 30.12 849 25.07 17.4 63.3 42 4.6 40.3
01:35 1020 30.12 849 25.07 17.7 63.8 40 4.1 39.3
01:40 1020 30.12 849 25.07 17.9 64.2 42 4.8 40.7
01:45 1020 30.12 849 25.07 17.7 63.8 39 3.8 38.9
01:50 1020 30.12 849 25.07 17.4 63.3 40 3.9 39
01:55 1020 30.12 849 25.07 17.2 62.9 40 3.6 38.5
02:00 1020 30.12 849 25.07 17.2 62.9 40 3.6 38.4
02:05 1020 30.12 849 25.07 17 62.6 42 4.1 39.4
02:10 1020 30.12 850 25.1 16.6 61.9 44 4.4 39.9
02:15 1020 30.12 850 25.1 16.6 61.8 43 3.9 39.1
02:20 1020 30.12 850 25.1 16.5 61.7 41 3.2 37.8
02:25 1020 30.12 850 25.1 17.2 62.9 39 3.3 37.9
02:30 1020 30.12 850 25.1 17 62.6 41 3.8 38.8
02:35 1020 30.12 850 25.1 16.8 62.3 42 3.8 38.8
02:40 1020 30.12 850 25.1 17.1 62.7 39 3 37.3
02:45 1020 30.12 850 25.1 17.2 63 40 3.7 38.6
02:50 1020 30.12 850 25.1 17.2 63 40 3.7 38.6
02:55 1020 30.12 850 25.1 17.2 62.9 40 3.6 38.4
03:00 1020 30.12 850 25.1 17.3 63.2 39 3.3 38
03:05 1020 30.12 850 25.1 17.3 63.1 42 4.3 39.8
03:10 1020 30.12 850 25.1 16.9 62.4 43 4.5 40.1
03:15 1020 30.12 850 25.1 16.5 61.7 45 4.5 40.1
03:20 1020 30.12 850 25.1 16.2 61.1 45 4.3 39.7
03:25 1020 30.12 850 25.1 16.1 61 45 4.3 39.7
03:30 1021 30.15 850 25.1 16 60.8 46 4.5 40.2
03:35 1021 30.15 850 25.1 15.8 60.4 48 4.8 40.7
03:40 1021 30.15 850 25.1 15.6 60 49 5.1 41.2
03:45 1021 30.15 850 25.1 15.4 59.7 52 5.6 42.1
03:50 1021 30.15 850 25.1 15.1 59.2 53 5.8 42.4
03:55 1021 30.15 850 25.1 14.7 58.4 52 5.1 41.2
04:00 1021 30.15 850 25.1 14.3 57.7 53 5 41
04:05 1021 30.15 850 25.1 14.1 57.3 54 5 41
04:10 1021 30.15 850 25.1 14 57.2 55 5.3 41.5
04:15 1021 30.15 850 25.1 13.9 57 56 5.4 41.7
04:20 1021 30.15 850 25.1 13.8 56.8 57 5.4 41.7
04:25 1021 30.15 850 25.1 13.6 56.5 57 5.3 41.6
04:30 1021 30.15 850 25.1 13.5 56.2 58 5.4 41.7
04:35 1021 30.15 850 25.1 13.2 55.8 60 5.6 42.2
04:40 1021 30.15 850 25.1 13.1 55.5 60 5.4 41.7
04:45 1021 30.15 850 25.1 13 55.3 59 5.3 41.5
04:50 1021 30.15 850 25.1 12.8 55 59 5.2 41.3
04:55 1021 30.15 850 25.1 12.9 55.1 59 5.1 41.2
05:00 1021 30.15 850 25.1 13 55.3 60 5.4 41.6
05:05 1021 30.15 850 25.1 12.9 55.2 60 5.3 41.5
05:10 1021 30.15 850 25.1 13 55.5 60 5.5 41.8
05:15 1021 30.15 851 25.13 13.2 55.8 59 5.4 41.8
05:20 1021 30.15 851 25.13 13.4 56 59 5.6 42.1
05:25 1021 30.15 851 25.13 13.5 56.2 59 5.6 42.1
05:30 1021 30.15 851 25.13 13.9 57.1 56 5.5 41.9
05:35 1021 30.15 851 25.13 14.3 57.8 56 5.7 42.2
05:40 1022 30.18 851 25.13 14.7 58.4 53 5.3 41.5
05:45 1022 30.18 851 25.13 15.1 59.3 51 5.2 41.4
05:50 1022 30.18 851 25.13 15.5 59.9 50 5.2 41.4
05:55 1022 30.18 851 25.13 15.7 60.2 49 5.2 41.4
06:00 1022 30.18 851 25.13 15.7 60.3 50 5.3 41.6
06:05 1022 30.18 851 25.13 15.7 60.2 50 5.5 41.9
06:10 1022 30.18 851 25.13 15.8 60.4 50 5.4 41.8
06:15 1022 30.18 851 25.13 15.9 60.6 50 5.6 42
06:20 1022 30.18 851 25.13 16 60.9 49 5.5 41.9
06:25 1022 30.18 851 25.13 16.2 61.2 50 5.8 42.4
06:30 1022 30.18 851 25.13 16.4 61.4 49 5.7 42.3
06:35 1022 30.18 851 25.13 16.3 61.3 50 5.8 42.4
06:40 1022 30.18 851 25.13 16.3 61.4 50 5.8 42.5
06:45 1022 30.18 851 25.13 16.5 61.7 49 5.8 42.5
06:50 1022 30.18 851 25.13 16.8 62.2 47 5.5 41.9
06:55 1022 30.18 851 25.13 16.9 62.4 47 5.7 42.3
07:00 1022 30.18 851 25.13 16.8 62.3 47 5.6 42.2
07:05 1022 30.18 851 25.13 17.2 62.9 45 5.4 41.7
07:10 1022 30.18 851 25.13 17.7 63.9 44 5.5 41.8
07:15 1022 30.18 851 25.13 18.1 64.5 43 5.5 41.8
07:20 1022 30.18 851 25.13 18.4 65.1 43 5.6 42.1
07:25 1022 30.18 851 25.13 17.9 64.2 45 6.1 42.9
07:30 1022 30.18 852 25.16 18 64.4 45 5.9 42.7
07:35 1022 30.18 852 25.16 18 64.3 45 6 42.8
07:40 1022 30.18 852 25.16 17.7 63.8 45 5.7 42.3
07:45 1022 30.18 852 25.16 18.1 64.5 44 5.8 42.5
07:50 1022 30.18 852 25.16 18.3 64.9 44 5.8 42.5
07:55 1022 30.18 852 25.16 18.6 65.4 43 5.9 42.6
08:00 1022 30.18 851 25.13 19.1 66.4 43 6.2 43.2
08:05 1022 30.18 851 25.13 18.9 65.9 45 6.7 44.1
08:10 1022 30.18 852 25.16 18.2 64.8 47 6.8 44.3
08:15 1022 30.18 852 25.16 18.3 65 45 6.3 43.3
08:20 1022 30.18 852 25.16 18.5 65.2 45 6.5 43.7
08:25 1022 30.18 852 25.16 18.3 65 45 6.4 43.5
08:30 1022 30.18 852 25.16 18.8 65.8 43 6.2 43.1
08:35 1022 30.18 852 25.16 18.7 65.6 44 6.3 43.4
08:40 1022 30.18 852 25.16 18.5 65.2 44 6.3 43.3
08:45 1023 30.21 852 25.16 18.8 65.9 43 6.2 43.1
08:50 1022 30.18 852 25.16 19.1 66.4 43 6.3 43.3
08:55 1022 30.18 852 25.16 19.1 66.3 43 6.3 43.4
09:00 1022 30.18 852 25.16 19.1 66.3 41 5.7 42.2
09:05 1022 30.18 852 25.16 19.5 67.1 42 6.2 43.2
09:10 1022 30.18 852 25.16 19.8 67.7 40 6.1 43
09:15 1022 30.18 852 25.16 19.7 67.5 42 6.5 43.7
09:20 1022 30.18 851 25.13 19.7 67.5 42 6.6 43.9
09:25 1022 30.18 851 25.13 19.7 67.4 41 6.2 43.2
09:30 1022 30.18 851 25.13 20.1 68.2 41 6.5 43.8
09:35 1022 30.18 851 25.13 20.7 69.2 41 7.1 44.9
09:40 1022 30.18 851 25.13 20.3 68.5 43 7.4 45.4
09:45 1022 30.18 851 25.13 20.1 68.2 42 7 44.7
09:50 1022 30.18 851 25.13 20.3 68.5 40 6.6 43.9
09:55 1022 30.18 851 25.13 20.4 68.8 41 6.9 44.3
10:00 1022 30.18 851 25.13 20.2 68.3 40 6.2 43.2
10:05 1022 30.18 851 25.13 20.5 68.9 40 6.6 43.9
10:10 1022 30.18 851 25.13 21.2 70.2 40 7.1 44.8
10:15 1022 30.18 851 25.13 20.9 69.7 39 6.8 44.2
10:20 1022 30.18 851 25.13 21.1 69.9 39 6.8 44.2
10:25 1022 30.18 851 25.13 21.2 70.1 38 6.5 43.7
10:30 1022 30.18 851 25.13 21.8 71.3 38 7 44.6
10:35 1022 30.18 851 25.13 21.9 71.4 38 7.2 44.9
10:40 1022 30.18 851 25.13 21.7 71.1 40 7.5 45.6
10:45 1022 30.18 851 25.13 20.8 69.4 42 7.5 45.5
10:50 1022 30.18 851 25.13 20.9 69.6 39 6.5 43.7
10:55 1022 30.18 851 25.13 22.3 72.1 35 6.3 43.4
11:00 1022 30.18 851 25.13 23.2 73.7 35 7 44.6
11:05 1022 30.18 851 25.13 23.1 73.6 35 6.9 44.5
11:10 1022 30.18 851 25.13 23.5 74.4 34 6.9 44.4
11:15 1022 30.18 851 25.13 23.8 74.8 34 7.1 44.7
11:20 1022 30.18 851 25.13 23.9 74.9 31 6.1 42.9
11:25 1022 30.18 851 25.13 23.9 75.1 32 6.6 43.9
11:30 1022 30.18 851 25.13 24.2 75.6 32 6.8 44.2
11:35 1022 30.18 851 25.13 23.8 74.9 32 6.2 43.1
11:40 1022 30.18 851 25.13 23.5 74.2 33 6.3 43.3
11:45 1022 30.18 851 25.13 23.1 73.5 33 6.1 43
11:50 1022 30.18 851 25.13 23 73.3 33 5.9 42.5
11:55 1022 30.18 851 25.13 23.3 74 31 5.7 42.2
12:00 1021 30.15 851 25.13 22.6 72.6 31 4.8 40.7
12:05 1021 30.15 851 25.13 22.6 72.6 30 4.4 39.9
12:10 1021 30.15 850 25.1 23 73.3 29 4.3 39.7
12:15 1021 30.15 850 25.1 23.1 73.6 31 5.3 41.6
12:20 1021 30.15 850 25.1 23.4 74 28 4.2 39.6
12:25 1021 30.15 850 25.1 23.4 74.1 29 4.5 40.2
12:30 1021 30.15 850 25.1 23.2 73.8 30 4.8 40.6
12:35 1021 30.15 851 25.13 23.1 73.5 31 5.2 41.3
12:40 1021 30.15 851 25.13 23.4 74.1 30 5.2 41.4
12:45 1021 30.15 851 25.13 23.6 74.5 30 5.1 41.3
12:50 1021 30.15 851 25.13 23.8 74.9 30 5.2 41.4
12:55 1021 30.15 850 25.1 23.8 74.8 29 5 41
13:00 1021 30.15 850 25.1 24.2 75.5 28 4.9 40.9
13:05 1021 30.15 850 25.1 23.3 73.9 30 5.1 41.2
13:10 1021 30.15 850 25.1 23.3 73.9 31 5.6 42
13:15 1021 30.15 850 25.1 23.1 73.5 32 5.9 42.6
13:20 1021 30.15 850 25.1 23.5 74.4 31 5.6 42.1
13:25 1021 30.15 850 25.1 24.2 75.5 30 5.9 42.6
13:30 1021 30.15 850 25.1 23.9 75 31 5.7 42.3
13:35 1021 30.15 850 25.1 24.5 76.2 29 5.5 42
13:40 1021 30.15 850 25.1 25.2 77.3 28 5.5 41.9
13:45 1021 30.15 850 25.1 24.6 76.3 28 5.2 41.3
13:50 1021 30.15 850 25.1 24.5 76 29 5.4 41.7
13:55 1021 30.15 850 25.1 24.4 75.9 29 5.5 42
14:00 1021 30.15 850 25.1 24.4 75.9 30 5.8 42.5
14:05 1021 30.15 850 25.1 24.4 75.9 28 5 41
14:10 1021 30.15 850 25.1 24.9 76.8 26 4.5 40.1
14:15 1021 30.15 850 25.1 24.6 76.3 30 6 42.7
14:20 1021 30.15 850 25.1 24.9 76.8 28 5.4 41.6
14:25 1021 30.15 850 25.1 25 77.1 26 4.4 40
14:30 1021 30.15 850 25.1 24.9 76.8 27 4.9 40.9
14:35 1021 30.15 850 25.1 25.1 77.2 27 5.2 41.4
14:40 1021 30.15 850 25.1 25 76.9 28 5.6 42.2
14:45 1021 30.15 850 25.1 25.2 77.3 27 5.2 41.4
14:50 1021 30.15 850 25.1 25.5 77.8 26 4.9 40.8
14:55 1021 30.15 850 25.1 25.7 78.3 27 5.3 41.6
15:00 1021 30.15 850 25.1 25.9 78.6 25 4.5 40.1
15:05 1021 30.15 850 25.1 25.8 78.5 25 4.3 39.8
15:10 1021 30.15 850 25.1 25.4 77.8 26 4.9 40.8
15:15 1021 30.15 850 25.1 25.3 77.6 25 4.3 39.8
15:20 1021 30.15 850 25.1 25.3 77.6 22 2.5 36.5
15:25 1020 30.12 850 25.1 25.6 78 22 2.4 36.2
15:30 1020 30.12 850 25.1 25.7 78.3 20 1.4 34.6
15:35 1020 30.12 850 25.1 26.3 79.4 20 2 35.6
15:40 1020 30.12 850 25.1 26.5 79.6 21 2.8 37.1
15:45 1020 30.12 850 25.1 26.4 79.6 24 4.3 39.7
15:50 1020 30.12 850 25.1 26.1 79 25 4.5 40.2
15:55 1020 30.12 850 25.1 26.5 79.6 22 3.2 37.8
16:00 1020 30.12 850 25.1 26.4 79.6 23 3.9 39
16:05 1020 30.12 850 25.1 26 78.8 22 2.8 37
16:10 1020 30.12 849 25.07 26.2 79.2 23 3.9 38.9
16:15 1020 30.12 849 25.07 26.4 79.4 22 3.5 38.3
16:20 1020 30.12 849 25.07 26.1 78.9 22 3.1 37.6
16:25 1020 30.12 849 25.07 26.2 79.2 26 5.7 42.3
16:30 1020 30.12 849 25.07 25.7 78.3 29 6.4 43.6
16:35 1020 30.12 849 25.07 25.5 77.9 26 5.1 41.1
16:40 1020 30.12 849 25.07 25.2 77.4 27 5.2 41.4
16:45 1020 30.12 849 25.07 24.9 76.9 28 5.6 42.1
16:50 1020 30.12 849 25.07 24.5 76.2 28 5 41
16:55 1020 30.12 849 25.07 24.3 75.7 26 3.8 38.9
17:00 1020 30.12 849 25.07 24.3 75.8 26 4 39.2
17:05 1020 30.12 849 25.07 24.4 76 25 3.1 37.7
17:10 1020 30.12 849 25.07 24.8 76.6 24 3.3 37.9
17:15 1020 30.12 849 25.07 24.7 76.5 27 4.8 40.7
17:20 1020 30.12 849 25.07 24.3 75.7 28 4.8 40.6
17:25 1020 30.12 849 25.07 24.2 75.6 29 5.5 42
17:30 1020 30.12 849 25.07 24.2 75.6 29 5.3 41.5
17:35 1020 30.12 849 25.07 24 75.3 29 5.2 41.3
17:40 1020 30.12 849 25.07 24 75.2 30 5.7 42.3
17:45 1020 30.12 849 25.07 23.9 75 31 5.9 42.6
17:50 1020 30.12 849 25.07 23.8 74.8 32 6.4 43.5
17:55 1020 30.12 849 25.07 23.7 74.7 32 6.5 43.7
18:00 1020 30.12 849 25.07 23.7 74.6 33 6.7 44.1
18:05 1020 30.12 849 25.07 23.6 74.4 33 6.7 44
18:10 1020 30.12 849 25.07 23.5 74.3 33 6.7 44.1
18:15 1020 30.12 849 25.07 23.5 74.3 34 6.8 44.3
18:20 1020 30.12 849 25.07 23.4 74.2 34 7 44.7
18:25 1020 30.12 849 25.07 23.2 73.8 35 7.3 45.1
18:30 1020 30.12 849 25.07 23.1 73.6 36 7.4 45.4
18:35 1020 30.12 849 25.07 23.1 73.5 36 7.3 45.2
18:40 1020 30.12 849 25.07 23 73.5 35 6.9 44.4
18:45 1020 30.12 849 25.07 23 73.5 35 7 44.6
18:50 1020 30.12 849 25.07 22.9 73.2 36 7.1 44.8
18:55 1020 30.12 849 25.07 22.7 72.9 36 7.1 44.9
19:00 1020 30.12 849 25.07 22.6 72.7 37 7.2 45
19:05 1020 30.12 849 25.07 22.6 72.7 36 7.1 44.7
19:10 1020 30.12 849 25.07 22.5 72.6 37 7.2 44.9
19:15 1020 30.12 849 25.07 22.4 72.4 37 7.1 44.8
19:20 1020 30.12 849 25.07 22.3 72.1 37 7.2 45
19:25 1020 30.12 849 25.07 22.1 71.8 38 7.1 44.8
19:30 1020 30.12 849 25.07 22.1 71.7 37 6.9 44.4
19:35 1020 30.12 849 25.07 22 71.7 37 6.9 44.5
19:40 1020 30.12 849 25.07 22 71.6 37 6.7 44
19:45 1020 30.12 849 25.07 22 71.6 37 6.8 44.2
19:50 1020 30.12 849 25.07 21.9 71.4 38 7 44.6
19:55 1020 30.12 849 25.07 21.8 71.2 38 7.1 44.9
20:00 1020 30.12 849 25.07 21.5 70.8 39 7.2 44.9
20:05 1020 30.12 849 25.07 21.4 70.4 40 7.3 45.2
20:10 1020 30.12 849 25.07 21.2 70.2 40 7.3 45.2
20:15 1020 30.12 849 25.07 21.1 69.9 41 7.3 45.2
20:20 1020 30.12 849 25.07 21.1 69.9 41 7.4 45.4
20:25 1020 30.12 849 25.07 21 69.8 41 7.4 45.4
20:30 1020 30.12 849 25.07 20.9 69.6 42 7.6 45.7
20:35 1020 30.12 850 25.1 20.7 69.3 42 7.4 45.4
20:40 1020 30.12 850 25.1 20.9 69.6 41 7.4 45.3
20:45 1020 30.12 850 25.1 20.9 69.5 41 7.4 45.4
20:50 1020 30.12 850 25.1 20.8 69.4 42 7.5 45.4
20:55 1020 30.12 850 25.1 20.7 69.3 42 7.4 45.4
21:00 1021 30.15 850 25.1 20.6 69.2 43 7.6 45.7
21:05 1021 30.15 850 25.1 20.5 68.9 43 7.7 45.9
21:10 1021 30.15 850 25.1 20.4 68.8 43 7.7 45.9
21:15 1021 30.15 850 25.1 20.5 68.8 43 7.8 46
21:20 1021 30.15 850 25.1 20.4 68.8 44 8 46.3
21:25 1021 30.15 850 25.1 20.3 68.6 45 8.1 46.6
21:30 1021 30.15 850 25.1 20.3 68.5 45 8.2 46.8
21:35 1021 30.15 850 25.1 20.1 68.3 46 8.5 47.2
21:40 1021 30.15 850 25.1 20 68 48 8.7 47.6
21:45 1021 30.15 850 25.1 19.9 67.7 49 8.8 47.9
21:50 1021 30.15 850 25.1 19.8 67.6 49 8.9 48
21:55 1021 30.15 850 25.1 19.8 67.7 49 9 48.2
22:00 1021 30.15 850 25.1 19.8 67.7 50 9.1 48.4
22:05 1021 30.15 851 25.13 19.8 67.6 50 9.2 48.6
22:10 1021 30.15 851 25.13 19.7 67.5 51 9.3 48.7
22:15 1021 30.15 851 25.13 19.7 67.4 51 9.3 48.8
22:20 1021 30.15 851 25.13 19.5 67.2 52 9.4 49
22:25 1021 30.15 851 25.13 19.4 66.9 53 9.6 49.3
22:30 1021 30.15 851 25.13 19.3 66.8 53 9.5 49.2
22:35 1021 30.15 851 25.13 19.3 66.8 53 9.7 49.4
22:40 1021 30.15 851 25.13 19.2 66.5 54 9.7 49.4
22:45 1022 30.18 851 25.13 19.1 66.4 54 9.7 49.5
22:50 1022 30.18 851 25.13 19 66.2 54 9.6 49.3
22:55 1022 30.18 851 25.13 19 66.2 54 9.6 49.3
23:00 1022 30.18 851 25.13 19.1 66.3 54 9.7 49.4
23:05 1022 30.18 851 25.13 19.1 66.3 55 9.8 49.6
23:10 1022 30.18 851 25.13 19 66.2 54 9.7 49.5
23:15 1022 30.18 851 25.13 19 66.1 55 9.7 49.5
23:20 1022 30.18 851 25.13 18.9 66 55 9.7 49.5
23:25 1022 30.18 851 25.13 18.9 66 55 9.7 49.4
23:30 1022 30.18 851 25.13 18.9 66.1 54 9.6 49.3
23:35 1022 30.18 851 25.13 19 66.2 55 9.8 49.6
23:40 1022 30.18 851 25.13 18.9 66.1 56 10.1 50.1
23:45 1022 30.18 851 25.13 18.8 65.8 57 10.1 50.1
23:50 1022 30.18 851 25.13 18.6 65.6 58 10.3 50.5
23:55 1022 30.18 851 25.13 18.5 65.3 58 10.2 50.4
24:00 1022 30.18 851 25.13 18.4 65.2 59 10.5 50.9